North Battleford Airport
CYQW : now visible

Airfield :











YOU CAN JOIN US ON...

 
LOGIN :

Register | Disclaimer

   EN    FR    IT 

 









Legend :    VFR   Marginal VFR   IFR   Intensive IFR   Very Intensive IFR
Visi :
Ceiling :
>= 8 km
>= 3000ft
5 to 8 km
1000 to 3000 ft
1500m to 5 km
500 to 1000 ft
800 to 1500m
200 to 500 ft
< 800m
< 200 ft
Symbols :   Thunderstorms  Fog  Heavy snow  Heavy precipitations  Wind > 20 kt






- Airport Elevation : 1799 ft
- IATA code : YQW


CYQW - North Battleford

CURRENT METAR :
  • 031400Z AUTO 12017KT 9SM CLR 17/12 A2998 RMK SLP156 DENSITY ALT 2300FT

EXPIRED METARs :
  • 031300Z AUTO 11015KT 9SM CLR 16/12 A3000 RMK SLP161 DENSITY ALT 2100FT
  • 031200Z AUTO 11014G19KT 9SM CLR 15/12 A3001 RMK SLP163 DENSITY ALT 2100FT

TAF TAF CYQW
Valid from the 03 at 12:00 until the 04 at 00:00 UTC


031138Z 0312/0324 12012KT P6SM FEW200
BECMG 0315/0317 14018KT
FM032100 14018G28KT P6SM SCT080 BKN240
PROB30 0321/0324 VRB20G30KT 5SM TSRA BKN060CB RMK FCST BASED ON AUTO OBS. NXT FCST BY 031800Z
CZWG FIR / North America



MET'MAP, your aeronautical weather chart ! - Copyright ORBIFLY December 2007 - Disclaimer

ORBIFLY MET'MAP TEAM :

Programming & Development : Alexandra Zaïnal
Concept & original design : Baudouin d'Aumeries
Assistance for programming : Marc-Olivier Méhu
Technical & hardware support : Manuel Goepfert

Contact : metmap@orbifly.com




SOURCES & CREDITS :

   NOAA       Earth
Advisory